Time;durP1;ratioP1;P1;durP2;ratioP2;P2;SDS_P1;SDS_P2;PMS_P1;PMS_P2;Temp;Humidity;BMP_temperature;BMP_pressure;BME280_temperature;BME280_humidity;BME280_pressure;Samples;Min_cycle;Max_cycle;Signal;HPM_P1;HPM_P2
2021/12/01 00:00:35;;;;;;;40.40;30.95;;;9.60;99.90;;;;;;4975442;28;20394;-91
2021/12/01 00:03:00;;;;;;;43.28;31.70;;;9.70;99.90;;;;;;4975108;28;20058;-92
2021/12/01 00:05:28;;;;;;;42.42;31.10;;;9.60;99.90;;;;;;4972775;28;20511;-90
2021/12/01 00:07:55;;;;;;;42.47;31.55;;;9.80;99.90;;;;;;4972064;28;20057;-90
2021/12/01 00:10:23;;;;;;;36.95;28.73;;;9.70;99.90;;;;;;4974627;28;20046;-90
2021/12/01 00:12:49;;;;;;;37.85;29.15;;;9.70;99.90;;;;;;4974703;28;20060;-90
2021/12/01 00:15:16;;;;;;;36.25;28.13;;;9.70;99.90;;;;;;4991691;28;20128;-91
2021/12/01 00:17:41;;;;;;;32.88;27.33;;;9.70;99.90;;;;;;4958787;28;20042;-91
2021/12/01 00:20:11;;;;;;;35.05;28.25;;;9.70;99.90;;;;;;4975840;28;20418;-90
2021/12/01 00:22:38;;;;;;;35.88;29.13;;;9.80;99.90;;;;;;4975003;28;20046;-91
2021/12/01 00:25:06;;;;;;;36.00;27.45;;;9.70;99.90;;;;;;4975322;28;20053;-93
2021/12/01 00:27:31;;;;;;;35.33;27.25;;;9.80;99.90;;;;;;4991936;28;20508;-90
2021/12/01 00:29:57;;;;;;;33.38;27.05;;;9.80;99.90;;;;;;4990931;28;20149;-91
2021/12/01 00:32:23;;;;;;;30.95;26.55;;;9.80;99.90;;;;;;4975241;28;20038;-89
2021/12/01 00:34:49;;;;;;;29.75;25.63;;;9.80;99.90;;;;;;4974919;28;20505;-90
2021/12/01 00:37:14;;;;;;;31.33;26.60;;;9.80;99.90;;;;;;4976910;28;20084;-91
2021/12/01 00:39:40;;;;;;;35.97;27.48;;;9.80;99.90;;;;;;4994734;28;20045;-92
2021/12/01 00:42:06;;;;;;;30.83;26.70;;;9.80;99.90;;;;;;4979366;28;20525;-92
2021/12/01 00:44:34;;;;;;;31.35;26.90;;;9.90;99.90;;;;;;4994229;28;20038;-91
2021/12/01 00:49:34;;;;;;;31.05;26.08;;;9.80;99.90;;;;;;4995574;28;20061;-90
2021/12/01 00:52:00;;;;;;;;;;;9.80;99.90;;;;;;4979023;28;20045;-91
2021/12/01 00:54:26;;;;;;;31.38;25.83;;;9.80;99.90;;;;;;4979927;28;19943;-93
2021/12/01 00:56:51;;;;;;;33.05;27.33;;;9.90;99.90;;;;;;4979182;28;20545;-91
2021/12/01 00:59:17;;;;;;;34.90;27.00;;;9.90;99.90;;;;;;4994338;28;20041;-91
2021/12/01 01:01:44;;;;;;;34.38;27.83;;;9.90;99.90;;;;;;5002525;28;20042;-91
2021/12/01 01:04:10;;;;;;;29.83;25.58;;;9.90;99.90;;;;;;4982875;28;20161;-90
2021/12/01 01:06:37;;;;;;;32.90;25.98;;;9.90;99.90;;;;;;4996703;28;20057;-90
2021/12/01 01:09:05;;;;;;;28.13;24.40;;;9.90;99.90;;;;;;5007457;28;20141;-92
2021/12/01 01:17:08;;;;;;;29.77;23.88;;;9.90;99.90;;;;;;4994226;28;20042;-90
2021/12/01 01:19:35;;;;;;;29.85;24.38;;;9.90;99.90;;;;;;4978393;28;20065;-90
2021/12/01 01:22:03;;;;;;;32.38;25.52;;;9.90;99.90;;;;;;4994624;28;20049;-92
2021/12/01 01:24:29;;;;;;;34.40;25.63;;;10.00;99.90;;;;;;4994487;28;20045;-93
2021/12/01 01:26:56;;;;;;;34.00;24.88;;;10.00;99.90;;;;;;4977574;28;20137;-92
2021/12/01 01:29:23;;;;;;;25.90;22.67;;;9.90;99.90;;;;;;4994132;28;20066;-91
2021/12/01 01:31:57;;;;;;;30.00;21.67;;;9.90;99.90;;;;;;4992858;28;20056;-92
2021/12/01 01:34:24;;;;;;;25.50;20.35;;;9.90;99.90;;;;;;4978132;28;20046;-92
2021/12/01 01:36:51;;;;;;;23.05;19.27;;;9.90;99.90;;;;;;4993325;28;20507;-90
2021/12/01 01:39:17;;;;;;;26.17;19.67;;;9.90;99.90;;;;;;4977848;28;20049;-90
2021/12/01 01:41:43;;;;;;;26.83;21.25;;;9.90;99.90;;;;;;4977723;28;20077;-92
2021/12/01 01:44:08;;;;;;;27.67;22.10;;;9.90;99.90;;;;;;4977367;28;20076;-90
2021/12/01 01:46:36;;;;;;;24.20;20.25;;;9.90;99.90;;;;;;4977370;28;20081;-91
2021/12/01 01:49:09;;;;;;;26.98;20.95;;;9.90;99.90;;;;;;4977312;28;20544;-93
2021/12/01 01:51:36;;;;;;;25.40;19.83;;;10.00;99.90;;;;;;4977211;28;20077;-92
2021/12/01 01:54:04;;;;;;;25.35;19.70;;;9.90;99.90;;;;;;4993721;28;20183;-90
2021/12/01 01:56:30;;;;;;;23.90;18.95;;;9.90;99.90;;;;;;4977064;28;20038;-91
2021/12/01 01:58:56;;;;;;;25.80;19.05;;;10.00;99.90;;;;;;4992678;28;20057;-92
2021/12/01 02:03:51;;;;;;;26.05;18.65;;;10.00;99.90;;;;;;4993352;28;20081;-90
2021/12/01 02:06:22;;;;;;;23.52;17.67;;;10.00;99.90;;;;;;4993454;28;20084;-91
2021/12/01 02:08:47;;;;;;;;;;;9.90;99.90;;;;;;4993341;28;20110;-92
2021/12/01 02:11:13;;;;;;;22.08;15.90;;;9.90;99.90;;;;;;4976656;28;20016;-91
2021/12/01 02:13:41;;;;;;;19.17;14.43;;;9.90;99.90;;;;;;4976399;28;20045;-91
2021/12/01 02:16:07;;;;;;;19.85;14.88;;;10.00;99.90;;;;;;4993167;28;20042;-92
2021/12/01 02:18:33;;;;;;;19.02;13.57;;;10.00;99.90;;;;;;4976627;28;20038;-89
2021/12/01 02:21:13;;;;;;;20.52;14.30;;;10.00;99.90;;;;;;4976571;28;20064;-90
2021/12/01 02:23:44;;;;;;;20.75;13.35;;;10.10;99.90;;;;;;4973411;28;20042;-91
2021/12/01 02:26:11;;;;;;;16.83;11.77;;;10.00;99.90;;;;;;4976072;28;20202;-91
2021/12/01 02:28:40;;;;;;;18.70;12.30;;;10.00;99.90;;;;;;4976102;28;20045;-89
2021/12/01 02:31:06;;;;;;;15.82;10.93;;;10.00;99.90;;;;;;4964665;28;20101;-90
2021/12/01 02:33:32;;;;;;;15.90;11.20;;;10.10;99.90;;;;;;4957702;28;20082;-89
2021/12/01 02:35:58;;;;;;;18.58;13.05;;;10.10;99.90;;;;;;4972691;28;20050;-90
2021/12/01 02:38:24;;;;;;;16.92;11.90;;;10.10;99.90;;;;;;4957664;28;20034;-90
2021/12/01 02:40:50;;;;;;;17.83;12.13;;;10.10;99.90;;;;;;4956790;28;20047;-91
2021/12/01 02:43:17;;;;;;;15.20;9.88;;;10.10;99.90;;;;;;4972945;28;20399;-92
2021/12/01 02:45:43;;;;;;;14.95;9.25;;;10.10;99.90;;;;;;4956194;28;20034;-91
2021/12/01 02:48:13;;;;;;;13.70;8.88;;;10.10;99.90;;;;;;4957460;28;20042;-91
2021/12/01 02:50:41;;;;;;;11.80;8.32;;;10.10;99.90;;;;;;4956670;28;20400;-92
2021/12/01 02:53:07;;;;;;;13.27;8.73;;;10.10;99.90;;;;;;4973505;28;20039;-89
2021/12/01 02:55:35;;;;;;;12.43;8.10;;;10.20;99.90;;;;;;4957153;28;20168;-88
2021/12/01 02:58:01;;;;;;;11.40;7.63;;;10.20;99.90;;;;;;4972455;28;20133;-89
2021/12/01 03:00:27;;;;;;;11.68;7.07;;;10.20;99.90;;;;;;4956639;28;20174;-88
2021/12/01 03:02:56;;;;;;;10.20;7.55;;;10.20;99.90;;;;;;4972213;28;20054;-87
2021/12/01 03:05:23;;;;;;;9.68;6.43;;;10.20;99.90;;;;;;4956672;28;20061;-87
2021/12/01 03:07:49;;;;;;;9.95;6.95;;;10.30;99.90;;;;;;4972411;28;20046;-89
2021/12/01 03:10:15;;;;;;;9.95;5.78;;;10.30;99.90;;;;;;4972686;28;20054;-88
2021/12/01 03:12:42;;;;;;;10.27;5.15;;;10.30;99.90;;;;;;4955897;28;20034;-91
2021/12/01 03:15:11;;;;;;;9.10;4.70;;;10.30;99.90;;;;;;4957108;28;20046;-87
2021/12/01 03:17:37;;;;;;;7.88;4.25;;;10.30;99.90;;;;;;4956382;28;20054;-88
2021/12/01 03:20:08;;;;;;;9.60;4.20;;;10.30;99.90;;;;;;4956528;28;20052;-86
2021/12/01 03:22:37;;;;;;;8.75;3.30;;;10.20;99.90;;;;;;4957298;28;20056;-90
2021/12/01 03:25:12;;;;;;;8.95;3.47;;;10.30;99.90;;;;;;4956973;28;20380;-94
2021/12/01 03:27:38;;;;;;;9.82;3.70;;;10.30;99.90;;;;;;4956711;28;20089;-89
2021/12/01 03:30:06;;;;;;;9.48;3.30;;;10.30;99.90;;;;;;4963520;28;20054;-89
2021/12/01 03:32:32;;;;;;;9.10;3.20;;;10.40;99.90;;;;;;4976319;28;20402;-88
2021/12/01 03:34:58;;;;;;;10.32;3.30;;;10.30;99.90;;;;;;4975747;28;20049;-89
2021/12/01 03:37:24;;;;;;;9.07;3.17;;;10.30;99.90;;;;;;4976403;28;20041;-89
2021/12/01 03:39:49;;;;;;;10.10;3.33;;;10.30;99.90;;;;;;4975383;28;20384;-89
2021/12/01 03:42:15;;;;;;;10.82;4.25;;;10.30;99.90;;;;;;4992228;28;20487;-89
2021/12/01 03:44:40;;;;;;;9.38;3.72;;;10.20;99.90;;;;;;4991912;28;20070;-89
2021/12/01 03:47:06;;;;;;;12.30;4.30;;;10.20;99.90;;;;;;4976776;28;20061;-90
2021/12/01 03:49:32;;;;;;;9.43;4.40;;;10.20;99.90;;;;;;4976038;28;20483;-89
2021/12/01 03:51:57;;;;;;;11.32;4.40;;;10.20;99.90;;;;;;4991778;28;20042;-89
2021/12/01 03:54:23;;;;;;;10.23;4.45;;;10.20;99.90;;;;;;4993203;28;20393;-89
2021/12/01 03:56:49;;;;;;;10.23;4.80;;;10.20;99.90;;;;;;4976725;28;20460;-89
2021/12/01 03:59:15;;;;;;;7.70;3.65;;;10.20;99.90;;;;;;4998608;28;20044;-88
2021/12/01 04:01:40;;;;;;;9.68;4.20;;;10.30;99.90;;;;;;4992763;28;20030;-88
2021/12/01 04:04:06;;;;;;;8.27;3.67;;;10.30;99.90;;;;;;4980799;28;20077;-90
2021/12/01 04:06:33;;;;;;;8.25;3.67;;;10.30;99.90;;;;;;4985766;28;20494;-91
2021/12/01 04:08:58;;;;;;;6.40;3.03;;;10.20;99.90;;;;;;5008282;28;20100;-92
2021/12/01 04:11:24;;;;;;;7.47;3.42;;;10.10;99.90;;;;;;4979492;28;20046;-90
2021/12/01 04:13:51;;;;;;;7.65;3.63;;;10.20;99.90;;;;;;4979886;28;20048;-92
2021/12/01 04:16:16;;;;;;;7.43;3.75;;;10.20;99.90;;;;;;4979603;28;20038;-88
2021/12/01 04:18:43;;;;;;;8.65;4.22;;;10.30;99.90;;;;;;4978861;28;20064;-89
2021/12/01 04:21:09;;;;;;;9.73;3.80;;;10.10;99.90;;;;;;4995449;28;20104;-89
2021/12/01 04:23:35;;;;;;;9.02;3.95;;;10.10;99.90;;;;;;4994580;28;20487;-89
2021/12/01 04:26:02;;;;;;;8.27;4.00;;;10.10;99.90;;;;;;4979109;28;20535;-89
2021/12/01 04:28:28;;;;;;;7.47;4.10;;;10.10;99.90;;;;;;4979244;28;20049;-90
2021/12/01 04:30:54;;;;;;;7.65;3.42;;;10.10;99.90;;;;;;4978438;28;20054;-91
2021/12/01 04:33:20;;;;;;;8.45;3.42;;;10.10;99.90;;;;;;4979087;28;20097;-89
2021/12/01 04:35:48;;;;;;;7.05;3.33;;;10.10;99.90;;;;;;4977946;28;20029;-90
2021/12/01 04:38:13;;;;;;;6.75;3.58;;;10.10;99.90;;;;;;4995953;28;20053;-91
2021/12/01 04:40:39;;;;;;;6.57;3.50;;;10.10;99.90;;;;;;4978370;28;20038;-90
2021/12/01 04:43:05;;;;;;;7.22;3.90;;;10.00;99.90;;;;;;4979514;28;20049;-90
2021/12/01 04:45:32;;;;;;;8.00;4.43;;;10.00;99.90;;;;;;4978981;28;20080;-90
2021/12/01 04:47:58;;;;;;;7.30;4.32;;;9.90;99.90;;;;;;4978442;28;20498;-92
2021/12/01 04:50:27;;;;;;;7.43;4.68;;;10.10;99.90;;;;;;4979080;28;20042;-89
2021/12/01 04:52:58;;;;;;;7.53;4.72;;;10.00;99.90;;;;;;4994261;28;20041;-91
2021/12/01 04:55:24;;;;;;;8.10;4.60;;;9.90;99.90;;;;;;4978755;28;20046;-90
2021/12/01 04:57:51;;;;;;;7.93;4.80;;;9.90;99.90;;;;;;4978495;28;20046;-91
2021/12/01 05:00:26;;;;;;;7.25;4.80;;;10.10;99.90;;;;;;4978660;28;20084;-89
2021/12/01 05:02:52;;;;;;;7.53;4.85;;;9.90;99.90;;;;;;4977807;28;20046;-89
2021/12/01 05:05:18;;;;;;;7.72;4.72;;;10.00;99.90;;;;;;4978566;28;20052;-89
2021/12/01 05:07:47;;;;;;;7.40;4.70;;;9.90;99.90;;;;;;4977817;28;20038;-93
2021/12/01 05:10:12;;;;;;;7.78;4.55;;;9.90;99.90;;;;;;4979144;28;20140;-89
2021/12/01 05:12:39;;;;;;;7.22;4.65;;;9.80;99.90;;;;;;4977294;28;20090;-89
2021/12/01 05:15:05;;;;;;;7.20;4.70;;;9.80;99.90;;;;;;4978887;28;20081;-87
2021/12/01 05:17:31;;;;;;;7.28;4.82;;;9.80;99.90;;;;;;4994367;28;20112;-90
2021/12/01 05:19:57;;;;;;;7.35;4.80;;;9.90;99.90;;;;;;4994553;28;20042;-88
2021/12/01 05:22:23;;;;;;;7.55;4.78;;;9.80;99.90;;;;;;4977717;28;20053;-90
2021/12/01 05:24:49;;;;;;;7.18;4.53;;;9.80;99.90;;;;;;4977899;28;20038;-92
2021/12/01 05:27:14;;;;;;;7.80;4.75;;;9.70;99.90;;;;;;4979049;28;20052;-88
2021/12/01 05:29:40;;;;;;;7.32;4.63;;;9.70;99.90;;;;;;4977919;28;20054;-90
2021/12/01 05:32:06;;;;;;;7.40;4.68;;;9.70;99.90;;;;;;4978222;28;20049;-88
2021/12/01 05:34:32;;;;;;;8.05;5.10;;;9.70;99.90;;;;;;4993795;28;20034;-92
2021/12/01 05:37:00;;;;;;;7.45;5.00;;;9.70;99.90;;;;;;4977399;28;20048;-89
2021/12/01 05:39:29;;;;;;;8.50;5.20;;;9.70;99.90;;;;;;4994635;28;20045;-89
2021/12/01 05:41:55;;;;;;;7.75;5.28;;;9.70;99.90;;;;;;4977233;28;20060;-88
2021/12/01 05:44:21;;;;;;;7.40;4.70;;;9.60;99.90;;;;;;4979475;28;20046;-90
2021/12/01 05:46:46;;;;;;;7.60;5.10;;;9.60;99.90;;;;;;4979772;28;20041;-89
2021/12/01 05:49:12;;;;;;;8.52;5.10;;;9.70;99.90;;;;;;4978085;28;20037;-89
2021/12/01 05:51:38;;;;;;;7.90;4.95;;;9.60;99.90;;;;;;4977123;28;20398;-89
2021/12/01 05:54:04;;;;;;;8.10;4.60;;;9.60;99.90;;;;;;4977123;28;20046;-90
2021/12/01 05:56:30;;;;;;;7.47;4.07;;;9.60;99.90;;;;;;4978576;28;20466;-94
2021/12/01 05:58:56;;;;;;;7.43;3.95;;;9.60;99.90;;;;;;4993427;28;20430;-91
2021/12/01 06:01:22;;;;;;;5.85;3.42;;;9.50;99.90;;;;;;4979050;28;20117;-92
2021/12/01 06:03:48;;;;;;;6.72;3.75;;;9.50;99.90;;;;;;4993599;28;20096;-92
2021/12/01 06:06:13;;;;;;;6.80;3.83;;;9.60;99.90;;;;;;4977749;28;20046;-88
2021/12/01 06:08:39;;;;;;;6.43;3.40;;;9.70;99.90;;;;;;4993720;28;20479;-91
2021/12/01 06:11:05;;;;;;;6.07;3.47;;;9.40;99.90;;;;;;4977610;28;20042;-90
2021/12/01 06:13:31;;;;;;;6.07;3.03;;;9.40;99.90;;;;;;4977425;28;20490;-90
2021/12/01 06:15:57;;;;;;;5.93;3.20;;;9.40;99.90;;;;;;4977066;28;20120;-88
2021/12/01 06:18:23;;;;;;;5.32;3.03;;;9.40;99.90;;;;;;4977323;28;20045;-88
2021/12/01 06:20:48;;;;;;;6.20;3.40;;;9.40;99.90;;;;;;4976534;28;20103;-89
2021/12/01 06:23:14;;;;;;;5.78;3.28;;;9.30;99.90;;;;;;4978500;28;20182;-90
2021/12/01 06:25:40;;;;;;;6.32;3.33;;;9.40;99.90;;;;;;4977207;28;20049;-90
2021/12/01 06:28:06;;;;;;;6.72;3.55;;;9.30;99.90;;;;;;4976569;28;20403;-89
2021/12/01 06:30:37;;;;;;;7.20;3.47;;;9.50;99.90;;;;;;4977122;28;20081;-90
2021/12/01 06:33:03;;;;;;;6.25;3.22;;;9.30;99.90;;;;;;4974321;28;20196;-89
2021/12/01 06:35:29;;;;;;;7.10;3.50;;;9.30;99.90;;;;;;4992385;28;20050;-89
2021/12/01 06:37:57;;;;;;;6.20;3.40;;;9.30;99.90;;;;;;4977971;28;20045;-91
2021/12/01 06:40:24;;;;;;;6.03;3.35;;;9.30;99.90;;;;;;4977148;28;20046;-90
2021/12/01 06:42:50;;;;;;;5.70;3.42;;;9.30;99.90;;;;;;4972342;28;20050;-90
2021/12/01 06:45:19;;;;;;;5.55;3.20;;;9.30;99.90;;;;;;4975990;28;20057;-87
2021/12/01 06:47:45;;;;;;;6.22;3.38;;;9.20;99.90;;;;;;4976682;28;20403;-89
2021/12/01 06:50:13;;;;;;;5.80;3.25;;;9.30;99.90;;;;;;4977471;28;20038;-90
2021/12/01 06:52:38;;;;;;;6.00;3.47;;;9.20;99.90;;;;;;4977176;28;20038;-89
2021/12/01 06:55:07;;;;;;;5.28;3.13;;;9.20;99.90;;;;;;5004957;28;20079;-88
2021/12/01 06:57:33;;;;;;;6.18;3.42;;;9.20;99.90;;;;;;5011870;28;20026;-89
2021/12/01 06:59:59;;;;;;;5.93;3.40;;;9.20;99.90;;;;;;4980860;28;20091;-88
2021/12/01 07:02:26;;;;;;;5.90;3.25;;;9.20;99.90;;;;;;5010900;28;20048;-88
2021/12/01 07:04:52;;;;;;;6.65;3.05;;;9.20;99.90;;;;;;5005269;28;20088;-86
2021/12/01 07:07:18;;;;;;;7.05;3.90;;;9.20;99.90;;;;;;4979964;28;20041;-90
2021/12/01 07:09:45;;;;;;;6.45;3.58;;;9.20;99.90;;;;;;4992624;28;20061;-89
2021/12/01 07:12:12;;;;;;;6.03;3.63;;;9.20;99.90;;;;;;4977670;28;20064;-89
2021/12/01 07:14:38;;;;;;;6.80;3.53;;;9.20;99.90;;;;;;4976275;28;20085;-88
2021/12/01 07:17:04;;;;;;;6.18;3.67;;;9.30;99.90;;;;;;4976821;28;20081;-89
2021/12/01 07:19:29;;;;;;;6.30;3.38;;;9.10;99.90;;;;;;4992036;28;20042;-89
2021/12/01 07:21:55;;;;;;;5.88;3.38;;;9.10;99.90;;;;;;4992159;28;20054;-90
2021/12/01 07:24:21;;;;;;;6.97;3.53;;;9.00;99.90;;;;;;4976817;28;20460;-88
2021/12/01 07:26:47;;;;;;;6.25;3.30;;;9.10;99.90;;;;;;4975609;28;20050;-91
2021/12/01 07:29:12;;;;;;;6.00;3.55;;;9.10;99.90;;;;;;4977019;28;20083;-90
2021/12/01 07:31:38;;;;;;;5.90;3.42;;;9.00;99.90;;;;;;4977020;28;20133;-90
2021/12/01 07:34:04;;;;;;;6.50;3.60;;;9.10;99.90;;;;;;4976657;28;20046;-87
2021/12/01 07:36:30;;;;;;;6.47;3.70;;;9.10;99.90;;;;;;4974762;28;20046;-89
2021/12/01 07:38:59;;;;;;;6.78;3.83;;;9.10;99.90;;;;;;4975542;28;20049;-92
2021/12/01 07:41:25;;;;;;;8.18;4.07;;;9.20;99.90;;;;;;4977028;28;20057;-89
2021/12/01 07:43:51;;;;;;;7.60;4.00;;;9.20;99.90;;;;;;4971703;28;20045;-87
2021/12/01 07:46:17;;;;;;;7.22;4.00;;;9.10;99.90;;;;;;4992025;28;20406;-90
2021/12/01 07:48:42;;;;;;;7.40;4.20;;;9.10;99.90;;;;;;4977088;28;20041;-89
2021/12/01 07:51:08;;;;;;;7.18;4.40;;;9.10;99.90;;;;;;4980899;28;20042;-93
2021/12/01 07:53:39;;;;;;;7.32;4.30;;;9.10;99.90;;;;;;4980837;28;20046;-89
2021/12/01 07:56:05;;;;;;;;;;;9.10;99.90;;;;;;4976196;28;20133;-91
2021/12/01 07:58:31;;;;;;;7.00;4.32;;;9.10;99.90;;;;;;4976699;28;20336;-91
2021/12/01 08:00:56;;;;;;;8.93;4.30;;;9.10;99.90;;;;;;4994871;28;20038;-90
2021/12/01 08:03:23;;;;;;;7.35;4.13;;;9.10;99.90;;;;;;4962429;28;20137;-92
2021/12/01 08:05:48;;;;;;;7.75;4.40;;;9.20;99.90;;;;;;4971260;28;20076;-92
2021/12/01 08:08:23;;;;;;;7.38;4.35;;;9.10;99.90;;;;;;4981897;28;20042;-92
2021/12/01 08:10:49;;;;;;;6.93;4.25;;;9.20;99.90;;;;;;4981155;28;20052;-92
2021/12/01 08:13:15;;;;;;;6.72;4.20;;;9.40;99.90;;;;;;4996206;28;20037;-92
2021/12/01 08:15:40;;;;;;;7.65;4.30;;;9.30;99.90;;;;;;4979662;28;20037;-89
2021/12/01 08:18:06;;;;;;;9.40;4.78;;;9.30;99.90;;;;;;4990881;28;20067;-89
2021/12/01 08:20:33;;;;;;;7.13;4.18;;;9.30;99.90;;;;;;4966992;28;20077;-94
2021/12/01 08:23:05;;;;;;;6.72;3.95;;;9.30;99.90;;;;;;4992803;28;20049;-91
2021/12/01 08:25:31;;;;;;;7.13;4.65;;;9.30;99.90;;;;;;4968091;28;20041;-91
2021/12/01 08:28:00;;;;;;;8.32;5.38;;;9.30;99.90;;;;;;4979266;28;20059;-90
2021/12/01 08:30:26;;;;;;;8.40;4.57;;;9.30;99.90;;;;;;4979719;28;20049;-92
2021/12/01 08:32:53;;;;;;;7.47;4.93;;;9.40;99.90;;;;;;4976806;28;20042;-90
2021/12/01 08:35:19;;;;;;;9.52;5.05;;;9.40;99.90;;;;;;4981804;28;20561;-91
2021/12/01 08:37:47;;;;;;;8.35;5.07;;;9.50;99.90;;;;;;4980033;28;20093;-90
2021/12/01 08:40:15;;;;;;;8.15;4.80;;;9.40;99.90;;;;;;4997744;28;20040;-93
2021/12/01 08:42:42;;;;;;;8.20;5.00;;;9.50;99.90;;;;;;4978606;28;20078;-91
2021/12/01 08:45:08;;;;;;;8.05;5.00;;;9.40;99.90;;;;;;4979190;28;20045;-89
2021/12/01 08:47:34;;;;;;;9.32;5.28;;;9.50;99.90;;;;;;4980938;28;20046;-91
2021/12/01 08:50:00;;;;;;;8.43;5.90;;;9.50;99.90;;;;;;4983420;28;20396;-89
2021/12/01 08:52:26;;;;;;;10.18;6.32;;;9.50;99.90;;;;;;4996714;28;20425;-90
2021/12/01 08:54:57;;;;;;;9.40;4.90;;;9.60;99.90;;;;;;4978859;28;20038;-91
2021/12/01 08:57:23;;;;;;;9.05;4.75;;;9.50;99.90;;;;;;4962089;28;20112;-92
2021/12/01 08:59:51;;;;;;;8.40;4.72;;;9.50;99.90;;;;;;4976878;28;20049;-92
2021/12/01 09:02:17;;;;;;;9.38;3.75;;;9.60;99.90;;;;;;4980216;28;20407;-92
2021/12/01 09:04:45;;;;;;;9.82;3.15;;;9.50;99.90;;;;;;4979152;28;20044;-90
2021/12/01 09:07:10;;;;;;;12.10;4.13;;;9.50;99.90;;;;;;4980359;28;20046;-92
2021/12/01 09:09:48;;;;;;;9.98;3.30;;;9.50;99.90;;;;;;4978171;28;20038;-91
2021/12/01 09:12:14;;;;;;;10.18;3.05;;;9.50;99.90;;;;;;4981435;28;20088;-90
2021/12/01 09:14:42;;;;;;;10.18;3.10;;;9.50;99.90;;;;;;4979310;28;20046;-91
2021/12/01 09:17:09;;;;;;;11.25;3.10;;;9.60;99.90;;;;;;4981612;28;20096;-91
2021/12/01 09:19:35;;;;;;;11.88;3.30;;;9.50;99.90;;;;;;4982487;28;20133;-91
2021/12/01 09:22:01;;;;;;;10.20;2.70;;;9.60;99.90;;;;;;4981967;28;20109;-93
2021/12/01 09:24:35;;;;;;;9.07;2.50;;;9.60;99.90;;;;;;4980866;28;20034;-91
2021/12/01 09:27:01;;;;;;;9.60;2.67;;;9.60;99.90;;;;;;4979026;28;20129;-90
2021/12/01 09:29:27;;;;;;;10.13;2.13;;;9.70;99.90;;;;;;4977635;28;20041;-90
2021/12/01 09:31:58;;;;;;;9.80;2.17;;;9.70;99.90;;;;;;4977740;28;20050;-89
2021/12/01 09:34:25;;;;;;;8.13;1.05;;;9.70;99.90;;;;;;4980159;28;20128;-92
2021/12/01 09:36:51;;;;;;;9.27;2.30;;;9.70;99.90;;;;;;4998696;28;20049;-95
2021/12/01 09:39:18;;;;;;;6.80;1.60;;;9.60;99.90;;;;;;4989410;28;20536;-94
2021/12/01 09:41:45;;;;;;;10.35;2.22;;;9.70;99.90;;;;;;4985515;28;20046;-93
2021/12/01 09:44:10;;;;;;;10.13;2.15;;;9.70;99.90;;;;;;4986585;28;20038;-92
2021/12/01 09:46:36;;;;;;;9.48;2.33;;;9.70;99.90;;;;;;4994357;28;20069;-92
2021/12/01 09:49:02;;;;;;;10.77;2.10;;;9.60;99.90;;;;;;4996071;28;20496;-93
2021/12/01 09:51:28;;;;;;;9.68;3.00;;;9.60;99.90;;;;;;5003713;28;20044;-91
2021/12/01 09:53:55;;;;;;;14.45;2.60;;;9.50;99.90;;;;;;5018961;28;20038;-95
2021/12/01 09:56:21;;;;;;;11.30;2.15;;;9.50;99.90;;;;;;5011826;28;20030;-93
2021/12/01 09:58:47;;;;;;;9.60;2.10;;;9.50;99.90;;;;;;5004497;28;20018;-96
2021/12/01 10:01:17;;;;;;;10.43;1.98;;;9.40;99.90;;;;;;5003528;28;20041;-95
2021/12/01 10:03:44;;;;;;;11.73;2.20;;;9.40;99.90;;;;;;5015002;28;20038;-92
2021/12/01 10:06:13;;;;;;;11.50;1.98;;;9.30;99.90;;;;;;4991082;28;20214;-94
2021/12/01 10:09:13;;;;;;;10.38;1.90;;;9.30;99.90;;;;;;4980843;28;20046;-93
2021/12/01 10:11:42;;;;;;;10.02;2.10;;;9.40;99.90;;;;;;4984275;28;20446;-96
2021/12/01 10:14:15;;;;;;;8.32;1.77;;;9.30;99.90;;;;;;4986733;28;20498;-93
2021/12/01 10:16:43;;;;;;;11.25;2.30;;;9.40;99.90;;;;;;4978962;28;20045;-90
2021/12/01 10:19:12;;;;;;;7.93;1.90;;;9.40;99.90;;;;;;4977478;28;20046;-94
2021/12/01 10:21:41;;;;;;;11.82;2.60;;;9.40;99.90;;;;;;4977797;28;20026;-92
2021/12/01 10:24:19;;;;;;;9.10;2.30;;;9.40;99.90;;;;;;4982752;28;20038;-92
2021/12/01 10:26:48;;;;;;;9.82;2.30;;;9.40;99.90;;;;;;4993771;28;20524;-92
2021/12/01 10:29:18;;;;;;;9.50;2.40;;;9.50;99.90;;;;;;4978834;28;20042;-92
2021/12/01 10:31:55;;;;;;;11.68;1.95;;;9.20;99.90;;;;;;4975627;28;20132;-90
2021/12/01 10:34:35;;;;;;;11.73;2.55;;;9.40;99.90;;;;;;4987722;28;20069;-94
2021/12/01 10:37:23;;;;;;;12.55;2.95;;;9.40;99.90;;;;;;4987595;28;20084;-96
2021/12/01 10:40:17;;;;;;;10.55;2.10;;;9.40;99.90;;;;;;4983557;28;20133;-96
2021/12/01 10:43:08;;;;;;;11.57;2.00;;;9.40;99.90;;;;;;4972691;28;20052;-95
2021/12/01 10:45:35;;;;;;;11.50;2.40;;;9.50;99.90;;;;;;4968581;28;20403;-95
2021/12/01 10:48:03;;;;;;;10.15;1.80;;;9.40;99.90;;;;;;4976949;28;20057;-94
2021/12/01 10:50:31;;;;;;;10.57;2.13;;;9.50;99.90;;;;;;4980261;28;20434;-93
2021/12/01 10:53:18;;;;;;;9.85;2.13;;;9.40;99.90;;;;;;4978155;28;20057;-92
2021/12/01 10:55:47;;;;;;;17.25;4.60;;;9.70;99.90;;;;;;4995375;28;20426;-94
2021/12/01 10:58:15;;;;;;;12.88;2.15;;;9.80;99.90;;;;;;4978344;28;20042;-93
2021/12/01 11:00:43;;;;;;;10.65;2.13;;;9.80;99.90;;;;;;4977757;28;20484;-94
2021/12/01 11:03:24;;;;;;;13.18;2.63;;;9.70;99.90;;;;;;4976612;28;20056;-91
2021/12/01 11:06:08;;;;;;;14.55;2.70;;;9.70;99.90;;;;;;4977557;28;20073;-94
2021/12/01 11:08:37;;;;;;;13.18;2.33;;;9.60;99.90;;;;;;4977962;28;20077;-91
2021/12/01 11:11:12;;;;;;;13.13;2.65;;;9.60;99.90;;;;;;4978258;28;20092;-92
2021/12/01 11:13:41;;;;;;;15.68;2.42;;;9.60;99.90;;;;;;4992519;28;20096;-93
2021/12/01 11:16:09;;;;;;;11.15;2.50;;;9.60;99.90;;;;;;4977903;28;20133;-92
2021/12/01 11:18:36;;;;;;;13.55;2.60;;;9.60;99.90;;;;;;4977086;28;20038;-90
2021/12/01 11:21:22;;;;;;;11.38;2.50;;;9.40;99.90;;;;;;4977562;28;20053;-91
2021/12/01 11:24:00;;;;;;;15.65;2.55;;;9.50;99.90;;;;;;4976817;28;20536;-92
2021/12/01 11:26:28;;;;;;;11.88;2.72;;;9.50;99.90;;;;;;4984035;28;20136;-94
2021/12/01 11:28:59;;;;;;;11.80;2.92;;;9.50;99.90;;;;;;4987716;28;20119;-89
2021/12/01 11:31:27;;;;;;;;;;;9.40;99.90;;;;;;4983763;28;20103;-92
2021/12/01 11:33:58;;;;;;;14.60;3.35;;;9.30;99.90;;;;;;4982200;28;20108;-93
2021/12/01 11:36:30;;;;;;;17.13;3.55;;;9.40;99.90;;;;;;4985070;28;20056;-92
2021/12/01 11:38:58;;;;;;;14.93;3.50;;;9.40;99.90;;;;;;4977295;28;20097;-94
2021/12/01 11:41:24;;;;;;;13.98;3.60;;;9.40;99.90;;;;;;4979188;28;20068;-94
2021/12/01 11:43:51;;;;;;;15.10;3.42;;;9.40;99.90;;;;;;5001700;28;20097;-94
2021/12/01 11:46:17;;;;;;;15.32;3.53;;;9.40;99.90;;;;;;4995127;28;20437;-89
2021/12/01 11:48:49;;;;;;;13.65;3.42;;;9.40;99.90;;;;;;4994072;28;20042;-92
2021/12/01 11:51:25;;;;;;;14.98;3.40;;;9.40;99.90;;;;;;4979430;28;20110;-93
2021/12/01 11:54:20;;;;;;;17.35;3.90;;;9.30;99.90;;;;;;4978221;28;20038;-91
2021/12/01 11:56:55;;;;;;;16.02;3.65;;;9.40;99.90;;;;;;4977811;28;20045;-94
2021/12/01 11:59:22;;;;;;;17.40;3.60;;;9.30;99.90;;;;;;4977997;28;20077;-92
2021/12/01 12:01:59;;;;;;;17.30;3.85;;;9.30;99.90;;;;;;4977158;28;20050;-92
2021/12/01 12:04:42;;;;;;;18.17;4.05;;;9.30;99.90;;;;;;4976867;28;20499;-91
2021/12/01 12:07:11;;;;;;;15.75;4.18;;;9.20;99.90;;;;;;4973651;28;20052;-91
2021/12/01 12:09:39;;;;;;;19.05;4.25;;;9.20;99.90;;;;;;4993659;28;20414;-94
2021/12/01 12:12:17;;;;;;;16.98;3.95;;;9.20;99.90;;;;;;4978772;28;20054;-92
2021/12/01 12:14:46;;;;;;;19.08;4.20;;;9.10;99.90;;;;;;4976685;28;20037;-93
2021/12/01 12:17:14;;;;;;;20.35;4.90;;;9.00;99.90;;;;;;4992778;28;20050;-91
2021/12/01 12:19:45;;;;;;;19.73;4.25;;;9.00;99.90;;;;;;4991271;28;20398;-91
2021/12/01 12:22:12;;;;;;;;;;;9.00;99.90;;;;;;4977480;28;20077;-91
2021/12/01 12:24:52;;;;;;;17.95;4.20;;;9.00;99.90;;;;;;4991985;28;20009;-92
2021/12/01 12:27:43;;;;;;;18.92;4.05;;;9.00;99.90;;;;;;4978756;28;20140;-91
2021/12/01 12:30:35;;;;;;;9.50;1.93;;;9.10;99.90;;;;;;4962746;28;20105;-90
2021/12/01 12:33:26;;;;;;;16.35;3.80;;;9.00;99.90;;;;;;4966788;28;20323;-94
2021/12/01 12:35:54;;;;;;;15.30;3.58;;;9.00;99.90;;;;;;4984435;28;20082;-92
2021/12/01 12:38:25;;;;;;;16.48;3.75;;;9.00;99.90;;;;;;4982252;28;20399;-90
2021/12/01 12:41:10;;;;;;;11.17;1.67;;;9.00;99.90;;;;;;4979694;28;20417;-93
2021/12/01 12:43:43;;;;;;;19.17;4.07;;;9.00;99.90;;;;;;4960075;28;20292;-90
2021/12/01 12:46:18;;;;;;;20.45;4.40;;;9.10;99.90;;;;;;4960163;28;20097;-93
2021/12/01 12:48:49;;;;;;;17.23;4.13;;;9.10;99.90;;;;;;4976406;28;20084;-93
2021/12/01 12:51:31;;;;;;;19.58;4.30;;;9.10;99.90;;;;;;4975815;28;20161;-94
2021/12/01 12:54:06;;;;;;;16.10;3.90;;;9.10;99.90;;;;;;4997552;28;20046;-93
2021/12/01 12:56:38;;;;;;;19.33;4.45;;;9.10;99.90;;;;;;4988740;28;20045;-94
2021/12/01 12:59:21;;;;;;;13.65;3.13;;;9.00;99.90;;;;;;4998877;28;20053;-93
2021/12/01 13:02:09;;;;;;;14.65;3.00;;;9.00;99.90;;;;;;5001813;28;20045;-93
2021/12/01 13:04:59;;;;;;;15.77;3.25;;;9.00;99.90;;;;;;4990209;28;20077;-91